Time;durP1;ratioP1;P1;durP2;ratioP2;P2;SDS_P1;SDS_P2;PMS_P1;PMS_P2;Temp;Humidity;BMP_temperature;BMP_pressure;BME280_temperature;BME280_humidity;BME280_pressure;Samples;Min_cycle;Max_cycle;Signal;HPM_P1;HPM_P2
2023/02/27 00:01:35;;;;;;;0.97;0.50;;;14.50;62.90;;;;;;5088250;28;20205;-46
2023/02/27 00:04:05;;;;;;;0.50;0.50;;;14.50;63.00;;;;;;5066235;28;20670;-46
2023/02/27 00:06:36;;;;;;;0.97;0.50;;;14.50;63.00;;;;;;5070283;28;20235;-46
2023/02/27 00:09:07;;;;;;;1.30;0.60;;;14.50;63.00;;;;;;5074217;28;20986;-46
2023/02/27 00:11:39;;;;;;;0.60;0.50;;;14.50;63.00;;;;;;5070697;28;20193;-46
2023/02/27 00:14:11;;;;;;;0.87;0.43;;;14.50;63.00;;;;;;5086972;28;20189;-47
2023/02/27 00:16:41;;;;;;;0.70;0.63;;;14.50;63.00;;;;;;5070833;28;20199;-46
2023/02/27 00:19:13;;;;;;;1.63;0.83;;;14.40;62.90;;;;;;5085374;28;20245;-46
2023/02/27 00:21:46;;;;;;;0.53;0.53;;;14.40;62.90;;;;;;5087519;28;20193;-47
2023/02/27 00:24:16;;;;;;;1.47;0.93;;;14.50;63.00;;;;;;5052735;28;20637;-46
2023/02/27 00:26:46;;;;;;;1.67;0.73;;;14.40;63.00;;;;;;5087485;28;20214;-46
2023/02/27 00:29:16;;;;;;;1.03;0.83;;;14.40;63.10;;;;;;5074563;28;20193;-47
2023/02/27 00:31:50;;;;;;;1.17;0.83;;;14.50;63.00;;;;;;5066026;28;20216;-47
2023/02/27 00:34:21;;;;;;;1.13;1.00;;;14.40;62.90;;;;;;5079510;28;20228;-46
2023/02/27 00:36:54;;;;;;;0.50;0.50;;;14.40;62.90;;;;;;5071473;28;20797;-46
2023/02/27 00:39:25;;;;;;;2.50;1.00;;;14.40;63.00;;;;;;5063189;28;20205;-46
2023/02/27 00:41:54;;;;;;;3.33;0.80;;;14.40;62.90;;;;;;5068452;28;20190;-46
2023/02/27 00:44:22;;;;;;;1.10;0.80;;;14.40;63.00;;;;;;5026483;28;20197;-46
2023/02/27 00:46:54;;;;;;;1.50;0.80;;;14.40;63.10;;;;;;5068373;28;20205;-46
2023/02/27 00:49:26;;;;;;;1.40;0.50;;;14.40;62.90;;;;;;5075879;28;20220;-46
2023/02/27 00:51:57;;;;;;;1.20;1.10;;;14.40;62.90;;;;;;5031843;28;20681;-46
2023/02/27 00:54:41;;;;;;;1.27;0.70;;;14.40;63.10;;;;;;5056094;28;20814;-46
2023/02/27 00:57:22;;;;;;;1.40;1.27;;;14.40;63.80;;;;;;5077699;28;20556;-46
2023/02/27 00:59:54;;;;;;;2.23;0.87;;;14.40;63.50;;;;;;5064744;28;20205;-47
2023/02/27 01:02:24;;;;;;;2.67;0.70;;;14.40;63.10;;;;;;5078638;28;20201;-46
2023/02/27 01:04:53;;;;;;;2.20;1.37;;;14.40;63.10;;;;;;5071819;28;20196;-46
2023/02/27 01:07:24;;;;;;;1.80;0.70;;;14.40;63.10;;;;;;5052745;28;20471;-46
2023/02/27 01:09:53;;;;;;;1.30;0.90;;;14.30;63.20;;;;;;5068438;28;20201;-47
2023/02/27 01:12:23;;;;;;;0.70;0.63;;;14.30;63.10;;;;;;5060008;28;20633;-46
2023/02/27 01:14:56;;;;;;;2.03;0.93;;;14.30;62.90;;;;;;5065396;28;20198;-46
2023/02/27 01:17:27;;;;;;;1.30;0.90;;;14.40;63.00;;;;;;5068243;28;20528;-46
2023/02/27 01:19:56;;;;;;;1.00;0.70;;;14.30;63.20;;;;;;5048573;28;20210;-46
2023/02/27 01:22:24;;;;;;;2.20;1.03;;;14.30;63.10;;;;;;5069844;28;20206;-46
2023/02/27 01:24:52;;;;;;;1.10;0.80;;;14.30;63.10;;;;;;5051552;28;20635;-46
2023/02/27 01:27:20;;;;;;;1.10;0.83;;;14.30;63.10;;;;;;5071023;28;20209;-46
2023/02/27 01:29:50;;;;;;;1.90;0.67;;;14.30;63.20;;;;;;5073696;28;20267;-46
2023/02/27 01:32:19;;;;;;;0.90;0.90;;;14.30;63.20;;;;;;5066080;28;20240;-46
2023/02/27 01:34:49;;;;;;;1.37;0.80;;;14.20;63.20;;;;;;5080956;28;20236;-46
2023/02/27 01:37:19;;;;;;;1.13;0.87;;;14.30;63.20;;;;;;5069123;28;20673;-47
2023/02/27 01:40:01;;;;;;;0.97;0.60;;;14.30;63.20;;;;;;5072132;28;20221;-46
2023/02/27 01:42:38;;;;;;;1.23;0.80;;;14.30;63.20;;;;;;5086500;28;20227;-46
2023/02/27 01:45:24;;;;;;;0.60;0.60;;;14.30;63.30;;;;;;5092098;28;20193;-46
2023/02/27 01:48:16;;;;;;;1.80;1.10;;;14.30;63.10;;;;;;5082481;28;20783;-46
2023/02/27 01:51:01;;;;;;;2.30;0.90;;;14.20;63.40;;;;;;5079848;28;20186;-46
2023/02/27 01:53:37;;;;;;;1.57;0.60;;;14.20;63.30;;;;;;5065199;28;20190;-46
2023/02/27 01:56:28;;;;;;;1.40;0.50;;;14.20;63.20;;;;;;5052409;28;20213;-46
2023/02/27 01:59:07;;;;;;;1.10;1.00;;;14.20;63.30;;;;;;5054525;28;20247;-46
2023/02/27 02:01:37;;;;;;;1.80;0.80;;;14.20;63.40;;;;;;5069674;28;20221;-52
2023/02/27 02:04:36;;;;;;;1.63;0.93;;;14.20;63.40;;;;;;5055308;28;20201;-46
2023/02/27 02:07:19;;;;;;;1.50;1.00;;;14.20;63.30;;;;;;5064750;28;20213;-55
2023/02/27 02:09:53;;;;;;;1.67;1.00;;;14.10;63.30;;;;;;5070975;28;20201;-46
2023/02/27 02:12:48;;;;;;;1.77;0.70;;;14.20;63.40;;;;;;5041955;28;20198;-46
2023/02/27 02:15:24;;;;;;;1.10;0.83;;;14.20;63.40;;;;;;5062929;28;20198;-46
2023/02/27 02:18:42;;;;;;;1.57;1.13;;;14.10;63.50;;;;;;5081650;28;20201;-46
2023/02/27 02:21:47;;;;;;;0.83;0.80;;;14.20;63.50;;;;;;5063103;28;20594;-46
2023/02/27 02:25:11;;;;;;;0.90;0.77;;;14.20;63.50;;;;;;5086989;28;20270;-46
2023/02/27 02:28:20;;;;;;;1.13;0.83;;;14.20;63.30;;;;;;4965857;28;20210;-46
2023/02/27 02:31:19;;;;;;;1.67;0.90;;;14.10;63.40;;;;;;5071705;28;20213;-46
2023/02/27 02:34:37;;;;;;;3.30;1.07;;;14.10;63.40;;;;;;5074811;28;20264;-46
2023/02/27 02:37:36;;;;;;;1.47;0.90;;;14.10;63.40;;;;;;5073018;28;20205;-46
2023/02/27 02:40:49;;;;;;;1.07;0.90;;;14.10;63.50;;;;;;5068936;28;20268;-46
2023/02/27 02:43:37;;;;;;;1.57;1.00;;;14.10;63.50;;;;;;5050808;28;20225;-46
2023/02/27 02:46:27;;;;;;;1.40;0.77;;;14.10;63.50;;;;;;5073869;28;20215;-46
2023/02/27 02:49:32;;;;;;;2.20;0.80;;;14.10;63.40;;;;;;5070100;28;20232;-46
2023/02/27 02:52:34;;;;;;;1.87;0.87;;;14.10;63.40;;;;;;5056192;28;20189;-46
2023/02/27 02:55:28;;;;;;;1.30;0.90;;;14.10;63.40;;;;;;5055272;28;20551;-46
2023/02/27 02:58:31;;;;;;;0.70;0.60;;;14.10;63.30;;;;;;5058325;28;20206;-47
2023/02/27 03:01:19;;;;;;;1.17;0.77;;;14.10;63.40;;;;;;5038633;28;20270;-46
2023/02/27 03:03:59;;;;;;;1.07;0.50;;;14.10;63.30;;;;;;5056541;28;20223;-46
2023/02/27 03:06:44;;;;;;;0.77;0.70;;;14.10;63.30;;;;;;5053655;28;20265;-46
2023/02/27 03:09:43;;;;;;;1.20;1.03;;;14.10;63.30;;;;;;5042310;28;20745;-46
2023/02/27 03:12:18;;;;;;;1.07;0.97;;;14.10;63.30;;;;;;5056638;28;20666;-46
2023/02/27 03:15:18;;;;;;;1.60;0.90;;;14.00;63.30;;;;;;5058841;28;20615;-46
2023/02/27 03:18:19;;;;;;;1.80;1.10;;;14.00;63.30;;;;;;5057428;28;20197;-46
2023/02/27 03:21:12;;;;;;;1.53;0.60;;;14.00;63.30;;;;;;5072941;28;20292;-47
2023/02/27 03:24:01;;;;;;;1.40;0.80;;;14.00;63.30;;;;;;5063467;28;20197;-46
2023/02/27 03:26:39;;;;;;;1.23;0.43;;;14.00;63.30;;;;;;5043045;28;20206;-46
2023/02/27 03:29:14;;;;;;;2.37;0.90;;;14.00;63.40;;;;;;5044323;28;20206;-46
2023/02/27 03:32:12;;;;;;;5.30;0.93;;;14.00;63.40;;;;;;5044258;28;20201;-46
2023/02/27 03:34:44;;;;;;;1.70;1.40;;;14.00;63.30;;;;;;5099478;28;20656;-47
2023/02/27 03:37:50;;;;;;;1.23;0.73;;;13.90;63.40;;;;;;5059327;28;20182;-46
2023/02/27 03:40:36;;;;;;;1.50;0.70;;;14.00;63.30;;;;;;5088119;28;20201;-46
2023/02/27 03:43:22;;;;;;;0.90;0.80;;;13.90;63.30;;;;;;5085387;28;20207;-46
2023/02/27 03:46:17;;;;;;;1.67;1.07;;;13.90;63.30;;;;;;5082744;28;20197;-46
2023/02/27 03:48:47;;;;;;;1.13;0.60;;;13.90;63.30;;;;;;5063449;28;20531;-46
2023/02/27 03:51:22;;;;;;;1.17;0.73;;;13.90;63.20;;;;;;5084619;28;20197;-46
2023/02/27 03:54:12;;;;;;;1.03;0.93;;;13.90;63.20;;;;;;5071774;28;20204;-47
2023/02/27 03:56:51;;;;;;;1.57;0.73;;;13.90;63.20;;;;;;5072359;28;20193;-46
2023/02/27 03:59:26;;;;;;;1.83;1.10;;;13.90;63.10;;;;;;5071908;28;20189;-46
2023/02/27 04:01:58;;;;;;;1.70;0.90;;;13.90;63.10;;;;;;5069308;28;20654;-46
2023/02/27 04:04:30;;;;;;;1.30;0.80;;;13.90;63.10;;;;;;5086236;28;20201;-46
2023/02/27 04:07:27;;;;;;;1.40;1.17;;;13.90;63.10;;;;;;5042576;28;20233;-46
2023/02/27 04:10:33;;;;;;;1.70;1.03;;;13.90;63.10;;;;;;5055922;28;20778;-46
2023/02/27 04:13:05;;;;;;;1.70;1.00;;;13.90;63.10;;;;;;5074790;28;20250;-46
2023/02/27 04:16:01;;;;;;;1.17;0.93;;;13.80;63.10;;;;;;5081898;28;20197;-46
2023/02/27 04:18:51;;;;;;;1.90;0.83;;;13.90;63.10;;;;;;5072476;28;20193;-46
2023/02/27 04:21:44;;;;;;;1.50;0.80;;;13.90;63.10;;;;;;5095569;28;20203;-46
2023/02/27 04:24:14;;;;;;;4.67;0.93;;;13.80;63.00;;;;;;5073701;28;20215;-46
2023/02/27 04:27:37;;;;;;;2.80;0.90;;;13.80;63.00;;;;;;5088928;28;20611;-46
2023/02/27 04:30:53;;;;;;;1.27;1.00;;;13.80;63.00;;;;;;5036752;28;20205;-46
2023/02/27 04:33:51;;;;;;;1.53;1.00;;;13.80;63.00;;;;;;5020354;28;20231;-46
2023/02/27 04:37:12;;;;;;;1.97;0.90;;;13.90;63.00;;;;;;5070997;28;21201;-46
2023/02/27 04:39:59;;;;;;;1.23;0.83;;;13.80;63.00;;;;;;5052163;28;20220;-46
2023/02/27 04:42:33;;;;;;;1.60;0.90;;;13.80;63.00;;;;;;5030757;28;20198;-46
2023/02/27 04:45:14;;;;;;;1.10;1.00;;;13.80;63.00;;;;;;5068587;28;20254;-46
2023/02/27 04:47:54;;;;;;;1.33;0.93;;;13.80;63.00;;;;;;5052266;28;20201;-46
2023/02/27 04:50:48;;;;;;;1.90;1.07;;;13.80;63.00;;;;;;5048819;28;20194;-46
2023/02/27 04:53:35;;;;;;;1.90;1.57;;;13.80;62.90;;;;;;5040774;28;20204;-49
2023/02/27 04:56:12;;;;;;;4.27;1.27;;;13.80;63.00;;;;;;5044977;28;20214;-46
2023/02/27 04:59:02;;;;;;;1.03;0.73;;;13.80;63.00;;;;;;5051926;28;20198;-46
2023/02/27 05:01:53;;;;;;;2.00;1.20;;;13.80;62.90;;;;;;5068607;28;20193;-46
2023/02/27 05:04:33;;;;;;;2.27;1.13;;;13.80;63.00;;;;;;5024841;28;20209;-46
2023/02/27 05:07:20;;;;;;;1.37;1.10;;;13.80;62.90;;;;;;5055191;28;20225;-46
2023/02/27 05:10:27;;;;;;;1.13;1.00;;;13.80;63.00;;;;;;5055140;28;20217;-47
2023/02/27 05:13:19;;;;;;;1.13;0.70;;;13.80;62.90;;;;;;5070519;28;20193;-46
2023/02/27 05:16:13;;;;;;;2.33;0.80;;;13.70;62.80;;;;;;5065589;28;20552;-46
2023/02/27 05:18:43;;;;;;;2.03;1.13;;;13.70;62.90;;;;;;5041751;28;20659;-46
2023/02/27 05:21:46;;;;;;;1.67;1.40;;;13.80;62.90;;;;;;5068006;28;20220;-46
2023/02/27 05:24:41;;;;;;;1.07;0.90;;;13.70;62.80;;;;;;5044295;28;20194;-46
2023/02/27 05:27:47;;;;;;;1.10;1.00;;;13.70;62.80;;;;;;5061706;28;20667;-46
2023/02/27 05:30:58;;;;;;;2.27;0.87;;;13.70;62.90;;;;;;5060924;28;20647;-46
2023/02/27 05:34:21;;;;;;;1.40;0.90;;;13.70;62.90;;;;;;5062036;28;20227;-46
2023/02/27 05:37:21;;;;;;;1.40;1.30;;;13.70;62.90;;;;;;5089524;28;20214;-46
2023/02/27 05:39:53;;;;;;;0.93;0.77;;;13.70;62.90;;;;;;5096092;28;20207;-46
2023/02/27 05:42:40;;;;;;;1.03;0.80;;;13.70;63.00;;;;;;5081146;28;20741;-47
2023/02/27 05:45:16;;;;;;;2.10;1.00;;;13.70;62.90;;;;;;5070399;28;20209;-46
2023/02/27 05:47:55;;;;;;;1.33;1.00;;;13.70;62.90;;;;;;5070634;28;20197;-47
2023/02/27 05:50:29;;;;;;;1.17;1.00;;;13.70;62.90;;;;;;5073897;28;20286;-46
2023/02/27 05:53:04;;;;;;;0.87;0.70;;;13.70;62.90;;;;;;5069884;28;20185;-46
2023/02/27 05:55:55;;;;;;;1.07;0.97;;;13.70;62.70;;;;;;5065259;28;20212;-47
2023/02/27 05:58:42;;;;;;;2.07;1.10;;;13.70;62.70;;;;;;5068225;28;20201;-46
2023/02/27 06:01:11;;;;;;;1.00;1.00;;;13.70;62.60;;;;;;5069700;28;20205;-46
2023/02/27 06:03:43;;;;;;;1.93;0.97;;;13.70;62.60;;;;;;5086823;28;20205;-47
2023/02/27 06:06:18;;;;;;;2.23;1.00;;;13.70;62.60;;;;;;5074376;28;20198;-46
2023/02/27 06:08:48;;;;;;;1.57;0.83;;;13.70;62.60;;;;;;5070557;28;20228;-46
2023/02/27 06:11:18;;;;;;;1.87;1.40;;;13.70;62.50;;;;;;5085028;28;20221;-46
2023/02/27 06:13:46;;;;;;;0.83;0.83;;;13.70;62.60;;;;;;5087230;28;20193;-46
2023/02/27 06:16:16;;;;;;;1.10;0.87;;;13.70;62.60;;;;;;5069402;28;20258;-46
2023/02/27 06:18:47;;;;;;;0.97;0.90;;;13.70;62.50;;;;;;5067488;28;20209;-46
2023/02/27 06:21:17;;;;;;;1.07;0.90;;;13.70;62.40;;;;;;5086271;28;20201;-46
2023/02/27 06:23:49;;;;;;;1.33;0.90;;;13.70;62.40;;;;;;5087176;28;20200;-47
2023/02/27 06:26:19;;;;;;;2.53;1.40;;;13.60;62.40;;;;;;5078265;28;20197;-46
2023/02/27 06:28:48;;;;;;;1.50;0.90;;;13.70;62.40;;;;;;5054349;28;20252;-47
2023/02/27 06:31:20;;;;;;;0.90;0.90;;;13.70;62.40;;;;;;5070004;28;20646;-46
2023/02/27 06:33:50;;;;;;;1.40;1.27;;;13.70;62.50;;;;;;5086775;28;20224;-47
2023/02/27 06:36:19;;;;;;;1.77;1.13;;;13.70;62.20;;;;;;5086910;28;20215;-46
2023/02/27 06:38:50;;;;;;;1.17;1.00;;;13.70;62.40;;;;;;5090390;28;20201;-46
2023/02/27 06:41:20;;;;;;;1.30;1.10;;;13.70;62.30;;;;;;5090363;28;20201;-47
2023/02/27 06:43:52;;;;;;;1.07;0.90;;;13.70;62.10;;;;;;5086455;28;20615;-46
2023/02/27 06:46:23;;;;;;;1.17;0.77;;;13.70;62.00;;;;;;5085369;28;20205;-46
2023/02/27 06:48:52;;;;;;;1.23;0.80;;;13.80;62.20;;;;;;5069385;28;20372;-46
2023/02/27 06:51:21;;;;;;;1.60;0.97;;;13.80;62.10;;;;;;5089307;28;20779;-46
2023/02/27 06:53:52;;;;;;;3.63;1.47;;;13.70;62.30;;;;;;5090547;28;20185;-46
2023/02/27 06:56:23;;;;;;;2.33;1.27;;;13.70;62.00;;;;;;5067112;28;20205;-46
2023/02/27 06:58:56;;;;;;;3.30;1.40;;;13.80;62.00;;;;;;5073629;28;20613;-46
2023/02/27 07:01:26;;;;;;;1.70;1.23;;;13.80;61.80;;;;;;5090096;28;20205;-46
2023/02/27 07:04:00;;;;;;;2.60;1.50;;;13.80;61.60;;;;;;5088186;28;20277;-46
2023/02/27 07:06:30;;;;;;;2.73;1.37;;;13.80;61.60;;;;;;5084068;28;20196;-46
2023/02/27 07:09:20;;;;;;;1.20;1.10;;;13.80;61.60;;;;;;5072918;28;20387;-46
2023/02/27 07:11:50;;;;;;;1.97;1.27;;;13.80;61.80;;;;;;5089321;28;20242;-46
2023/02/27 07:14:24;;;;;;;1.90;1.37;;;13.80;61.50;;;;;;5085055;28;20208;-46
2023/02/27 07:16:55;;;;;;;2.67;1.50;;;13.80;61.40;;;;;;5087817;28;20190;-46
2023/02/27 07:19:24;;;;;;;4.10;1.40;;;13.80;61.40;;;;;;5083622;28;20603;-47
2023/02/27 07:21:52;;;;;;;2.63;1.40;;;13.90;61.40;;;;;;5089611;28;20204;-46
2023/02/27 07:24:22;;;;;;;2.40;0.93;;;13.90;61.30;;;;;;5085308;28;20216;-46
2023/02/27 07:26:50;;;;;;;3.10;1.83;;;13.80;61.20;;;;;;5076972;28;20197;-46
2023/02/27 07:29:22;;;;;;;134.67;25.80;;;13.90;61.70;;;;;;5089400;28;20295;-46
2023/02/27 07:31:51;;;;;;;102.23;22.17;;;13.90;63.20;;;;;;5084218;28;20722;-47
2023/02/27 07:34:24;;;;;;;79.30;19.53;;;14.10;65.50;;;;;;5076959;28;20234;-47
2023/02/27 07:36:56;;;;;;;72.53;17.53;;;14.50;65.20;;;;;;5068381;28;20212;-47
2023/02/27 07:39:28;;;;;;;65.00;15.53;;;14.90;64.30;;;;;;5068399;28;20259;-45
2023/02/27 07:41:57;;;;;;;69.40;16.70;;;15.30;63.40;;;;;;5072412;28;20630;-45
2023/02/27 07:44:31;;;;;;;57.33;14.77;;;15.60;62.30;;;;;;5063711;28;20210;-46
2023/02/27 07:47:00;;;;;;;48.87;13.20;;;16.20;60.30;;;;;;5048680;28;20232;-46
2023/02/27 07:49:29;;;;;;;46.13;11.13;;;16.20;60.40;;;;;;5072008;28;20271;-46
2023/02/27 07:52:00;;;;;;;35.07;10.80;;;16.70;58.80;;;;;;5068236;28;20213;-46
2023/02/27 07:54:33;;;;;;;34.03;9.40;;;17.00;57.80;;;;;;5063296;28;20217;-45
2023/02/27 07:57:05;;;;;;;38.70;9.27;;;;;;;;;;5044559;28;20645;-46
2023/02/27 07:59:38;;;;;;;25.17;7.80;;;;;;;;;;5072029;28;20220;-46
2023/02/27 08:02:12;;;;;;;25.60;7.43;;;;;;;;;;5068637;28;20619;-45
2023/02/27 08:04:40;;;;;;;23.20;7.00;;;;;;;;;;5066707;28;20205;-45
2023/02/27 08:07:13;;;;;;;25.57;7.43;;;;;;;;;;5064929;28;20213;-44
2023/02/27 08:09:44;;;;;;;19.57;5.87;;;;;;;;;;5059379;28;20229;-46
2023/02/27 08:12:15;;;;;;;22.67;5.60;;;;;;;;;;5067683;28;20198;-47
2023/02/27 08:14:46;;;;;;;16.87;5.30;;;;;;;;;;5080797;28;20721;-47
2023/02/27 08:17:19;;;;;;;15.57;4.83;;;;;;;;;;5068148;28;20598;-46
2023/02/27 08:19:50;;;;;;;15.33;4.97;;;;;;;;;;5062022;28;20240;-46
2023/02/27 08:22:22;;;;;;;13.50;4.47;;;;;;;;;;5071218;28;20658;-46
2023/02/27 08:24:54;;;;;;;14.77;4.40;;;;;;;;;;5083857;28;21027;-47
2023/02/27 08:27:26;;;;;;;8.73;3.53;;;;;;;;;;5077262;28;20198;-46
2023/02/27 08:29:56;;;;;;;9.23;3.67;;;;;;;;;;5070216;28;20213;-46
2023/02/27 08:32:27;;;;;;;14.33;3.87;;;;;;;;;;5061636;28;20775;-45
2023/02/27 08:34:56;;;;;;;10.00;3.43;;;;;;;;;;5067288;28;20690;-45
2023/02/27 08:37:27;;;;;;;10.53;3.13;;;;;;;;;;5067002;28;20217;-46
2023/02/27 08:39:57;;;;;;;10.37;2.67;;;;;;;;;;5062161;28;20263;-46
2023/02/27 08:42:29;;;;;;;8.03;2.77;;;;;;;;;;5039313;28;20189;-47
2023/02/27 08:45:01;;;;;;;8.17;3.00;;;;;;;;;;5066421;28;20198;-47
2023/02/27 08:47:30;;;;;;;6.43;2.50;;;;;;;;;;5064507;28;20206;-47
2023/02/27 08:50:05;;;;;;;6.03;2.57;;;;;;;;;;5058134;28;20221;-47
2023/02/27 08:52:35;;;;;;;5.03;2.30;;;21.10;48.60;;;;;;5064029;28;20637;-46
2023/02/27 08:55:16;;;;;;;7.23;2.10;;;21.00;49.10;;;;;;5061896;28;20588;-47
2023/02/27 08:57:47;;;;;;;3.97;1.70;;;21.10;48.90;;;;;;5061559;28;20207;-48
2023/02/27 09:00:17;;;;;;;4.33;2.07;;;21.30;48.90;;;;;;5063824;28;20198;-48
2023/02/27 09:02:48;;;;;;;4.33;1.87;;;21.30;48.70;;;;;;5067061;28;20224;-47
2023/02/27 09:05:17;;;;;;;3.33;1.97;;;21.40;48.70;;;;;;5053192;28;20200;-48
2023/02/27 09:07:49;;;;;;;2.93;1.50;;;21.50;48.50;;;;;;5047624;28;20674;-48
2023/02/27 09:10:21;;;;;;;3.67;1.90;;;21.50;48.60;;;;;;5064419;28;20224;-46
2023/02/27 09:12:53;;;;;;;5.30;2.10;;;21.60;48.50;;;;;;5057748;28;20198;-46
2023/02/27 09:15:21;;;;;;;3.60;1.60;;;21.60;48.20;;;;;;5066674;28;20198;-47
2023/02/27 09:17:55;;;;;;;4.90;1.73;;;21.60;47.70;;;;;;5061360;28;20285;-47
2023/02/27 09:20:28;;;;;;;3.60;1.57;;;21.60;47.90;;;;;;5055813;28;20213;-47
2023/02/27 09:23:05;;;;;;;4.43;1.80;;;21.60;47.60;;;;;;5043842;28;20694;-47
2023/02/27 09:25:38;;;;;;;3.70;1.57;;;21.60;46.90;;;;;;5042608;28;20230;-47
2023/02/27 09:28:06;;;;;;;3.13;1.03;;;21.60;48.00;;;;;;5031128;28;20702;-47
2023/02/27 09:30:34;;;;;;;2.60;1.10;;;21.60;48.40;;;;;;5038357;28;20796;-46
2023/02/27 09:33:03;;;;;;;4.80;1.40;;;21.70;49.20;;;;;;5063817;28;20628;-47
2023/02/27 09:35:34;;;;;;;3.07;1.13;;;21.70;48.40;;;;;;5082641;28;20225;-46
2023/02/27 09:38:05;;;;;;;2.83;1.30;;;21.80;48.40;;;;;;5086591;28;20189;-47
2023/02/27 09:40:42;;;;;;;2.90;1.17;;;21.80;48.60;;;;;;5084928;28;20541;-46
2023/02/27 09:43:19;;;;;;;2.77;1.00;;;21.90;48.60;;;;;;5064889;28;20220;-46
2023/02/27 09:45:59;;;;;;;1.80;1.03;;;22.00;48.50;;;;;;5069153;28;20201;-48
2023/02/27 09:49:21;;;;;;;2.87;0.87;;;22.00;48.30;;;;;;5077967;28;20186;-48
2023/02/27 09:51:57;;;;;;;1.47;0.90;;;22.00;48.50;;;;;;5081489;28;20767;-47
2023/02/27 09:54:32;;;;;;;2.37;1.07;;;22.10;48.40;;;;;;5057500;28;20636;-52
2023/02/27 09:57:17;;;;;;;2.07;1.07;;;22.10;48.70;;;;;;5066327;28;20231;-48
2023/02/27 09:59:55;;;;;;;2.00;0.73;;;22.20;48.50;;;;;;5081256;28;20189;-47
2023/02/27 10:02:43;;;;;;;2.10;1.20;;;22.20;48.50;;;;;;5064450;28;20215;-46
2023/02/27 10:05:41;;;;;;;1.03;0.77;;;22.20;48.50;;;;;;5075258;28;20212;-46
2023/02/27 10:08:29;;;;;;;2.10;0.90;;;21.90;47.70;;;;;;5080427;28;20213;-46
2023/02/27 10:11:06;;;;;;;1.60;0.80;;;21.60;47.70;;;;;;5091312;28;20221;-47
2023/02/27 10:14:00;;;;;;;1.57;1.13;;;21.20;47.70;;;;;;5064987;28;20177;-47
2023/02/27 10:16:33;;;;;;;1.23;0.93;;;20.90;48.30;;;;;;5085820;28;20189;-47
2023/02/27 10:19:13;;;;;;;1.33;0.87;;;20.80;48.60;;;;;;5086693;28;20250;-46
2023/02/27 10:21:50;;;;;;;1.90;0.90;;;20.60;48.30;;;;;;5076166;28;20199;-47
2023/02/27 10:24:53;;;;;;;1.93;0.77;;;20.40;48.80;;;;;;5084806;28;20258;-47
2023/02/27 10:27:22;;;;;;;2.03;0.90;;;20.10;49.10;;;;;;5066186;28;20193;-46
2023/02/27 10:29:57;;;;;;;1.47;0.70;;;20.00;49.10;;;;;;5051558;28;20571;-46
2023/02/27 10:32:37;;;;;;;0.70;0.70;;;19.80;49.50;;;;;;5072675;28;20193;-46
2023/02/27 10:35:19;;;;;;;1.40;0.70;;;19.70;49.80;;;;;;5056543;28;20323;-46
2023/02/27 10:38:03;;;;;;;1.23;0.70;;;19.50;49.80;;;;;;5053987;28;20198;-46
2023/02/27 10:40:35;;;;;;;2.27;0.70;;;19.40;50.20;;;;;;5066546;28;20222;-46
2023/02/27 10:43:06;;;;;;;1.30;0.77;;;19.20;50.80;;;;;;5048467;28;20679;-47
2023/02/27 10:45:38;;;;;;;1.50;0.70;;;19.20;50.80;;;;;;5051977;28;20190;-46
2023/02/27 10:48:14;;;;;;;2.27;0.70;;;19.10;51.00;;;;;;5069262;28;20278;-46
2023/02/27 10:50:52;;;;;;;0.90;0.70;;;19.00;51.30;;;;;;5055827;28;20267;-47
2023/02/27 10:53:29;;;;;;;1.83;1.00;;;18.90;51.50;;;;;;5052433;28;20623;-47
2023/02/27 10:56:06;;;;;;;1.27;0.80;;;18.80;51.70;;;;;;5050461;28;20212;-46
2023/02/27 10:58:38;;;;;;;1.80;0.73;;;18.70;52.20;;;;;;5051397;28;20193;-46
2023/02/27 11:01:10;;;;;;;1.57;0.67;;;18.60;52.00;;;;;;5045209;28;20214;-46
2023/02/27 11:03:43;;;;;;;1.23;0.73;;;18.50;52.90;;;;;;5051800;28;20259;-46
2023/02/27 11:06:26;;;;;;;3.17;0.77;;;18.40;52.60;;;;;;5069841;28;20213;-46
2023/02/27 11:09:28;;;;;;;1.17;0.73;;;18.30;52.70;;;;;;5052764;28;20217;-46
2023/02/27 11:12:28;;;;;;;1.37;0.90;;;18.30;53.00;;;;;;5045261;28;20197;-46
2023/02/27 11:15:00;;;;;;;1.27;0.80;;;18.20;53.10;;;;;;5063158;28;20666;-46
2023/02/27 11:17:34;;;;;;;1.37;0.70;;;18.10;53.30;;;;;;5047331;28;20193;-46
2023/02/27 11:20:31;;;;;;;0.60;0.50;;;18.00;53.60;;;;;;5045919;28;20278;-46
2023/02/27 11:23:18;;;;;;;1.33;0.90;;;18.00;53.70;;;;;;5066674;28;20193;-46
2023/02/27 11:25:47;;;;;;;1.70;0.70;;;17.90;54.20;;;;;;5061553;28;20244;-46
2023/02/27 11:28:24;;;;;;;1.97;0.90;;;17.80;54.20;;;;;;5064108;28;20206;-46
2023/02/27 11:31:20;;;;;;;1.37;0.80;;;17.70;54.40;;;;;;5061577;28;20245;-46
2023/02/27 11:33:53;;;;;;;1.57;0.83;;;17.70;54.50;;;;;;5067199;28;20213;-46
2023/02/27 11:36:46;;;;;;;1.33;0.80;;;17.60;54.60;;;;;;5065677;28;20225;-46
2023/02/27 11:39:32;;;;;;;1.77;0.70;;;17.60;54.90;;;;;;5089090;28;20739;-46
2023/02/27 11:42:11;;;;;;;3.10;1.17;;;17.50;55.00;;;;;;5084409;28;20213;-46
2023/02/27 11:44:52;;;;;;;1.07;0.60;;;17.40;55.60;;;;;;5049696;28;20201;-47
2023/02/27 11:47:30;;;;;;;1.40;0.70;;;17.40;55.20;;;;;;5083065;28;20737;-46
2023/02/27 11:50:35;;;;;;;1.67;0.80;;;17.30;55.30;;;;;;5071246;28;20658;-46
2023/02/27 11:53:24;;;;;;;1.60;0.67;;;17.30;55.40;;;;;;5089378;28;20606;-46
2023/02/27 11:55:58;;;;;;;1.43;0.80;;;17.20;55.50;;;;;;5071931;28;20644;-47
2023/02/27 11:58:37;;;;;;;1.53;0.67;;;17.20;55.50;;;;;;5064257;28;20237;-47
2023/02/27 12:01:25;;;;;;;1.33;0.90;;;17.20;55.50;;;;;;5096684;28;20211;-46
2023/02/27 12:04:09;;;;;;;1.00;0.83;;;17.10;55.40;;;;;;5061640;28;20552;-46
2023/02/27 12:07:14;;;;;;;2.60;0.80;;;17.10;55.80;;;;;;5066500;28;20217;-46
2023/02/27 12:10:25;;;;;;;1.07;0.60;;;17.10;55.60;;;;;;5088232;28;20224;-46
2023/02/27 12:13:20;;;;;;;2.57;1.00;;;17.00;55.80;;;;;;5088703;28;20211;-46
2023/02/27 12:16:08;;;;;;;1.90;0.90;;;16.90;55.90;;;;;;5093149;28;20189;-46
2023/02/27 12:18:44;;;;;;;1.47;1.00;;;16.90;56.20;;;;;;5081961;28;20213;-47
2023/02/27 12:21:35;;;;;;;1.00;0.60;;;16.90;56.20;;;;;;5076650;28;20817;-46
2023/02/27 12:24:31;;;;;;;1.90;1.13;;;16.80;56.50;;;;;;5070903;28;20763;-46
2023/02/27 12:27:43;;;;;;;0.97;0.63;;;16.90;56.70;;;;;;5085816;28;20215;-46
2023/02/27 12:30:49;;;;;;;1.07;0.60;;;16.80;56.70;;;;;;4977546;28;20212;-47
2023/02/27 12:33:33;;;;;;;2.83;0.93;;;16.80;56.80;;;;;;4965336;28;20273;-46
2023/02/27 12:36:09;;;;;;;1.97;1.10;;;16.70;56.70;;;;;;4976602;28;20250;-46
2023/02/27 12:38:38;;;;;;;1.70;0.93;;;16.70;56.90;;;;;;5007799;28;20199;-46
2023/02/27 12:41:29;;;;;;;0.90;0.80;;;16.70;56.90;;;;;;5012975;28;20274;-46
2023/02/27 12:44:07;;;;;;;0.70;0.57;;;16.70;57.00;;;;;;5007851;28;20231;-46
2023/02/27 12:47:15;;;;;;;1.10;0.70;;;16.60;57.00;;;;;;5007407;28;20231;-46
2023/02/27 12:50:11;;;;;;;1.43;0.60;;;16.70;57.10;;;;;;5007901;28;20231;-46
2023/02/27 12:52:52;;;;;;;1.30;0.83;;;16.70;57.20;;;;;;5007891;28;20218;-46
2023/02/27 12:55:54;;;;;;;3.87;0.80;;;16.60;57.20;;;;;;5005383;28;20200;-47
2023/02/27 12:58:44;;;;;;;1.27;0.70;;;16.60;57.30;;;;;;5071438;28;20212;-46
2023/02/27 13:01:39;;;;;;;1.10;0.70;;;16.60;57.50;;;;;;5087849;28;20217;-46
2023/02/27 13:04:32;;;;;;;0.73;0.63;;;16.50;57.40;;;;;;5068276;28;20267;-46
2023/02/27 13:07:48;;;;;;;0.97;0.87;;;16.50;57.50;;;;;;5080598;28;20240;-46
2023/02/27 13:10:42;;;;;;;1.53;0.80;;;16.50;57.50;;;;;;5066428;28;20241;-46
2023/02/27 13:13:47;;;;;;;1.53;0.80;;;16.50;57.60;;;;;;5081786;28;20202;-46
2023/02/27 13:16:42;;;;;;;1.33;0.90;;;16.50;57.70;;;;;;5048132;28;20209;-46
2023/02/27 13:19:14;;;;;;;1.53;0.70;;;16.40;57.60;;;;;;5075246;28;20215;-46
2023/02/27 13:21:54;;;;;;;1.73;0.90;;;16.40;57.60;;;;;;5088426;28;20185;-46
2023/02/27 13:24:32;;;;;;;1.10;0.87;;;16.40;57.70;;;;;;5068588;28;20200;-46
2023/02/27 13:27:27;;;;;;;1.23;0.87;;;16.40;57.70;;;;;;5088717;28;20200;-47
2023/02/27 13:30:13;;;;;;;1.13;0.63;;;16.40;57.70;;;;;;5078625;28;20231;-47
2023/02/27 13:33:32;;;;;;;1.13;0.80;;;16.40;57.70;;;;;;5075345;28;20291;-47
2023/02/27 13:36:23;;;;;;;1.77;0.70;;;16.40;57.70;;;;;;5088383;28;20228;-47
2023/02/27 13:38:58;;;;;;;1.13;0.70;;;16.40;57.70;;;;;;5087316;28;20198;-47
2023/02/27 13:41:37;;;;;;;1.27;0.63;;;16.40;57.70;;;;;;5092098;28;20195;-47
2023/02/27 13:44:40;;;;;;;1.10;0.73;;;16.40;57.70;;;;;;5070580;28;20205;-47
2023/02/27 13:47:28;;;;;;;1.00;0.70;;;16.30;57.40;;;;;;5094047;28;20216;-46
2023/02/27 13:50:01;;;;;;;0.77;0.60;;;16.30;57.60;;;;;;5091766;28;20201;-47
2023/02/27 13:52:45;;;;;;;1.20;0.60;;;16.30;57.70;;;;;;5075897;28;20224;-46
2023/02/27 13:55:38;;;;;;;1.00;0.57;;;16.30;58.30;;;;;;5077852;28;20212;-46
2023/02/27 13:58:23;;;;;;;0.83;0.70;;;16.30;57.80;;;;;;5091845;28;20219;-46
2023/02/27 14:00:58;;;;;;;1.20;0.70;;;16.30;57.90;;;;;;5091711;28;20203;-46
2023/02/27 14:03:31;;;;;;;1.13;0.70;;;16.20;57.80;;;;;;5070521;28;20670;-47
2023/02/27 14:06:10;;;;;;;0.87;0.60;;;16.20;57.70;;;;;;5083636;28;20211;-46